createdAt,value
2018-07-29T00:03:19.730Z,10.23
2018-07-29T00:08:10.679Z,8.63
2018-07-29T00:13:01.637Z,8.60
2018-07-29T00:17:53.280Z,7.90
2018-07-29T00:22:44.280Z,8.70
2018-07-29T00:27:35.212Z,6.60
2018-07-29T00:32:26.914Z,7.00
2018-07-29T00:37:17.832Z,7.37
2018-07-29T00:42:08.757Z,7.40
2018-07-29T00:46:59.659Z,6.80
2018-07-29T00:51:50.565Z,6.83
2018-07-29T00:56:41.461Z,6.10
2018-07-29T01:01:32.428Z,5.67
2018-07-29T01:06:23.321Z,5.73
2018-07-29T01:11:14.263Z,5.87
2018-07-29T01:16:05.297Z,5.40
2018-07-29T01:20:56.205Z,6.60
2018-07-29T01:25:47.132Z,5.43
2018-07-29T01:30:38.032Z,5.30
2018-07-29T01:35:28.928Z,4.43
2018-07-29T01:40:19.830Z,4.63
2018-07-29T01:45:10.817Z,4.50
2018-07-29T01:50:01.809Z,4.70
2018-07-29T01:54:52.738Z,4.47
2018-07-29T01:59:43.629Z,4.20
2018-07-29T02:04:34.584Z,6.23
2018-07-29T02:09:25.484Z,4.23
2018-07-29T02:14:16.402Z,4.47
2018-07-29T02:19:07.335Z,4.00
2018-07-29T02:23:58.240Z,2.97
2018-07-29T02:28:49.199Z,5.13
2018-07-29T02:33:40.869Z,3.30
2018-07-29T02:38:31.765Z,3.50
2018-07-29T02:43:22.787Z,3.67
2018-07-29T02:48:13.676Z,3.70
2018-07-29T02:53:04.608Z,3.33
2018-07-29T02:57:56.261Z,3.53
2018-07-29T03:02:47.215Z,5.93
2018-07-29T03:07:38.125Z,3.40
2018-07-29T03:12:29.039Z,2.97
2018-07-29T03:17:19.936Z,2.93
2018-07-29T03:22:10.844Z,3.30
2018-07-29T03:27:02.500Z,3.50
2018-07-29T03:31:53.486Z,2.80
2018-07-29T03:36:45.134Z,3.60
2018-07-29T03:41:36.806Z,3.30
2018-07-29T03:46:27.706Z,2.90
2018-07-29T03:51:18.607Z,3.03
2018-07-29T03:56:10.261Z,3.53
2018-07-29T04:01:01.219Z,3.57
2018-07-29T04:05:52.136Z,4.60
2018-07-29T04:10:43.045Z,3.30
2018-07-29T04:15:33.941Z,2.87
2018-07-29T04:20:24.853Z,3.27
2018-07-29T04:25:15.764Z,3.70
2018-07-29T04:30:06.668Z,3.70
2018-07-29T04:34:58.329Z,3.23
2018-07-29T04:39:49.308Z,3.83
2018-07-29T04:44:41.701Z,3.03
2018-07-29T04:49:32.611Z,3.27
2018-07-29T04:54:23.535Z,3.10
2018-07-29T04:59:14.492Z,3.10
2018-07-29T05:04:05.403Z,3.47
2018-07-29T05:08:56.312Z,3.20
2018-07-29T05:13:47.256Z,3.60
2018-07-29T05:18:38.183Z,3.70
2018-07-29T05:23:29.200Z,3.67
2018-07-29T05:28:20.109Z,4.20
2018-07-29T05:33:11.005Z,4.17
2018-07-29T05:38:01.905Z,3.73
2018-07-29T05:42:52.812Z,4.13
2018-07-29T05:47:43.784Z,3.87
2018-07-29T05:52:34.681Z,4.57
2018-07-29T05:57:25.611Z,3.83
2018-07-29T06:02:16.519Z,3.40
2018-07-29T06:07:07.441Z,4.03
2018-07-29T06:11:58.364Z,4.40
2018-07-29T06:16:49.312Z,5.10
2018-07-29T06:21:41.033Z,4.93
2018-07-29T06:26:31.953Z,5.50
2018-07-29T06:31:22.932Z,9.03
2018-07-29T06:36:13.776Z,6.73
2018-07-29T06:41:04.675Z,6.73
2018-07-29T06:45:55.564Z,6.47
2018-07-29T06:50:46.516Z,6.47
2018-07-29T06:55:38.186Z,6.40
2018-07-29T07:00:29.092Z,5.70
2018-07-29T07:05:20.016Z,6.37
2018-07-29T07:10:10.934Z,6.40
2018-07-29T07:15:01.843Z,5.53
2018-07-29T07:19:52.780Z,5.83
2018-07-29T07:24:43.686Z,5.77
2018-07-29T07:29:34.610Z,6.60
2018-07-29T07:34:25.508Z,6.67
2018-07-29T07:39:16.397Z,5.43
2018-07-29T07:44:07.291Z,5.87
2018-07-29T07:48:58.942Z,5.33
2018-07-29T07:53:50.666Z,6.03
2018-07-29T07:58:42.311Z,5.70
2018-07-29T08:03:33.981Z,5.60
2018-07-29T08:08:24.966Z,5.50
2018-07-29T08:13:15.887Z,5.40
2018-07-29T08:18:07.538Z,4.97
2018-07-29T08:22:58.458Z,5.70
2018-07-29T08:27:49.420Z,8.77
2018-07-29T08:32:40.325Z,5.87
2018-07-29T08:37:31.221Z,5.97
2018-07-29T08:42:22.203Z,5.60
2018-07-29T08:47:13.917Z,6.17
2018-07-29T08:52:04.826Z,5.90
2018-07-29T08:56:55.768Z,6.00
2018-07-29T09:01:46.767Z,5.60
2018-07-29T09:06:37.689Z,6.27
2018-07-29T09:11:28.624Z,6.40
2018-07-29T09:16:19.656Z,5.47
2018-07-29T09:21:11.348Z,6.67
2018-07-29T09:26:02.284Z,7.17
2018-07-29T09:30:53.348Z,7.90
2018-07-29T09:35:44.152Z,6.40
2018-07-29T09:40:35.943Z,6.30
2018-07-29T09:45:26.928Z,6.30
2018-07-29T09:50:17.796Z,6.27
2018-07-29T09:55:08.770Z,5.50
2018-07-29T09:59:59.762Z,6.10
2018-07-29T10:04:50.751Z,6.60
2018-07-29T10:09:41.654Z,5.60
2018-07-29T10:14:32.544Z,6.20
2018-07-29T10:19:23.465Z,6.30
2018-07-29T10:24:14.400Z,6.77
2018-07-29T10:29:05.291Z,6.57
2018-07-29T10:33:56.931Z,6.47
2018-07-29T10:38:47.837Z,6.57
2018-07-29T10:43:39.477Z,5.90
2018-07-29T10:48:31.211Z,4.93
2018-07-29T10:53:22.900Z,5.30
2018-07-29T10:58:13.804Z,4.53
2018-07-29T11:03:04.696Z,5.00
2018-07-29T11:07:55.619Z,4.20
2018-07-29T11:12:46.548Z,4.90
2018-07-29T11:17:37.476Z,4.67
2018-07-29T11:22:28.368Z,5.40
2018-07-29T11:27:19.263Z,5.27
2018-07-29T11:32:10.256Z,5.07
2018-07-29T11:37:01.160Z,5.00
2018-07-29T11:41:52.072Z,5.40
2018-07-29T11:46:42.999Z,4.43
2018-07-29T11:51:33.911Z,5.07
2018-07-29T11:56:24.800Z,4.57
2018-07-29T12:01:15.696Z,4.53
2018-07-29T12:06:07.377Z,5.67
2018-07-29T12:10:58.310Z,5.63
2018-07-29T12:15:49.224Z,4.50
2018-07-29T12:20:40.129Z,4.97
2018-07-29T12:25:31.048Z,4.03
2018-07-29T12:30:22.013Z,5.27
2018-07-29T12:35:12.913Z,5.63
2018-07-29T12:40:03.857Z,4.80
2018-07-29T12:44:55.503Z,4.87
2018-07-29T12:49:47.140Z,5.00
2018-07-29T12:54:38.801Z,4.93
2018-07-29T12:59:29.715Z,5.87
2018-07-29T13:04:20.634Z,5.10
2018-07-29T13:09:11.598Z,5.20
2018-07-29T13:14:02.497Z,5.73
2018-07-29T13:18:53.445Z,5.13
2018-07-29T13:23:44.340Z,5.43
2018-07-29T13:28:35.257Z,5.37
2018-07-29T13:33:26.153Z,5.07
2018-07-29T13:38:17.051Z,6.30
2018-07-29T13:43:07.985Z,5.17
2018-07-29T13:47:58.905Z,5.23
2018-07-29T13:52:49.809Z,6.90
2018-07-29T13:57:40.733Z,5.40
2018-07-29T14:02:31.689Z,5.17
2018-07-29T14:07:22.576Z,4.50
2018-07-29T14:12:13.471Z,4.50
2018-07-29T14:17:05.112Z,4.67
2018-07-29T14:21:56.048Z,5.37
2018-07-29T14:26:46.945Z,4.93
2018-07-29T14:31:38.584Z,4.53
2018-07-29T14:36:29.480Z,5.10
2018-07-29T14:41:21.108Z,5.47
2018-07-29T14:46:12.008Z,5.00
2018-07-29T14:51:02.965Z,5.57
2018-07-29T14:55:54.613Z,5.50
2018-07-29T15:00:45.524Z,4.57
2018-07-29T15:05:37.177Z,7.50
2018-07-29T15:10:28.564Z,5.43
2018-07-29T15:15:19.491Z,5.67
2018-07-29T15:20:11.144Z,4.23
2018-07-29T15:25:02.108Z,8.20
2018-07-29T15:29:53.107Z,4.03
2018-07-29T15:34:44.010Z,4.73
2018-07-29T15:39:34.920Z,4.30
2018-07-29T15:44:26.568Z,5.03
2018-07-29T15:49:17.539Z,4.37
2018-07-29T15:54:08.450Z,4.30
2018-07-29T15:58:59.408Z,4.60
2018-07-29T16:03:51.083Z,4.70
2018-07-29T16:08:41.977Z,5.23
2018-07-29T16:13:32.896Z,5.70
2018-07-29T16:18:23.834Z,4.90
2018-07-29T16:23:14.733Z,5.07
2018-07-29T16:28:05.669Z,5.00
2018-07-29T16:32:56.600Z,5.83
2018-07-29T16:37:47.497Z,5.63
2018-07-29T16:42:38.424Z,4.80
2018-07-29T16:47:29.348Z,5.43
2018-07-29T16:52:20.248Z,5.50
2018-07-29T16:57:11.179Z,5.20
2018-07-29T17:02:02.100Z,5.47
2018-07-29T17:06:53.013Z,5.60
2018-07-29T17:11:43.917Z,5.87
2018-07-29T17:16:34.884Z,5.40
2018-07-29T17:21:25.789Z,5.57
2018-07-29T17:26:16.693Z,4.70
2018-07-29T17:31:07.592Z,6.17
2018-07-29T17:35:58.491Z,4.87
2018-07-29T17:40:50.124Z,5.00
2018-07-29T17:45:41.778Z,6.13
2018-07-29T17:50:32.699Z,6.40
2018-07-29T17:55:23.603Z,6.30
2018-07-29T18:00:14.524Z,6.20
2018-07-29T18:05:05.466Z,6.13
2018-07-29T18:09:57.065Z,6.07
2018-07-29T18:14:48.715Z,5.90
2018-07-29T18:19:39.638Z,5.97
2018-07-29T18:24:30.540Z,6.50
2018-07-29T18:29:22.176Z,5.60
2018-07-29T18:34:13.893Z,5.37
2018-07-29T18:39:04.852Z,5.33
2018-07-29T18:43:55.748Z,5.20
2018-07-29T18:48:47.397Z,5.90
2018-07-29T18:53:38.312Z,5.60
2018-07-29T18:58:29.220Z,5.03
2018-07-29T19:03:20.856Z,5.47
2018-07-29T19:08:12.496Z,5.33
2018-07-29T19:13:04.131Z,5.03
2018-07-29T19:17:55.847Z,6.30
2018-07-29T19:22:46.688Z,5.53
2018-07-29T19:27:37.616Z,6.00
2018-07-29T19:32:28.508Z,5.50
2018-07-29T19:37:20.156Z,5.33
2018-07-29T19:42:11.788Z,5.13
2018-07-29T19:47:03.435Z,5.30
2018-07-29T19:51:54.329Z,5.50
2018-07-29T19:56:45.978Z,5.80
2018-07-29T20:01:37.636Z,5.43
2018-07-29T20:06:28.535Z,6.10
2018-07-29T20:11:19.512Z,5.60
2018-07-29T20:16:10.487Z,5.40
2018-07-29T20:21:02.120Z,6.00
2018-07-29T20:25:53.024Z,5.73
2018-07-29T20:30:44.681Z,5.37
2018-07-29T20:35:35.579Z,5.70
2018-07-29T20:40:27.205Z,5.47
2018-07-29T20:45:18.881Z,5.93
2018-07-29T20:50:09.758Z,5.43
2018-07-29T20:55:01.461Z,5.27
2018-07-29T20:59:52.360Z,5.80
2018-07-29T21:04:43.252Z,5.73
2018-07-29T21:09:34.152Z,5.57
2018-07-29T21:14:25.802Z,5.50
2018-07-29T21:19:16.711Z,6.03
2018-07-29T21:24:07.620Z,7.57
2018-07-29T21:28:59.251Z,5.90
2018-07-29T21:33:50.943Z,6.50
2018-07-29T21:38:41.860Z,5.47
2018-07-29T21:43:32.773Z,5.83
2018-07-29T21:48:23.677Z,5.47
2018-07-29T21:53:14.585Z,4.73
2018-07-29T21:58:05.491Z,5.10
2018-07-29T22:02:57.130Z,5.57
2018-07-29T22:07:48.085Z,5.27
2018-07-29T22:12:38.974Z,5.10
2018-07-29T22:17:29.940Z,5.93
2018-07-29T22:22:20.858Z,5.77
2018-07-29T22:27:11.787Z,5.27
2018-07-29T22:32:02.672Z,5.23
2018-07-29T22:36:53.569Z,6.03
2018-07-29T22:41:44.468Z,5.87
2018-07-29T22:46:36.106Z,5.50
2018-07-29T22:51:27.023Z,5.50
2018-07-29T22:56:18.660Z,5.60
2018-07-29T23:01:09.549Z,5.53
2018-07-29T23:06:00.439Z,5.90
2018-07-29T23:10:51.326Z,5.13
2018-07-29T23:15:42.215Z,5.20
2018-07-29T23:20:33.855Z,5.80
2018-07-29T23:25:25.513Z,6.13
2018-07-29T23:30:16.412Z,5.83
2018-07-29T23:35:08.055Z,6.00
2018-07-29T23:39:58.955Z,6.40
2018-07-29T23:44:50.655Z,6.20
2018-07-29T23:49:41.565Z,6.60
2018-07-29T23:54:32.456Z,6.80
2018-07-29T23:59:23.353Z,6.20
